WXM80 ListenWXM80 Stop

You find our weather info also at:

UK Metoffice

WeatherCloud

Weather Underground

Northeastern Weather Network

AWEKAS

Citizen Weather Observer Program (CWOP)

HAMweather, WeatherForYou, PWS Weather


Weather Underground History page Text

Daily Summary for August 20, 2017 Units:  Both    English   Metric
« Previous Day
Next Day »
Daily Weekly Monthly Yearly Custom
  High: Low: Average:
Temperature: 86.8 °F /  30.4 °C 69.4 °F /  20.8 °C 76.9 °F /  24.9 °C
Dew Point: 70.0 °F /  21.1 °C 62.9 °F /  17.2 °C 65.9 °F /  18.8 °C
Humidity: 85 % 49 % 70 %
Wind Speed: 7.7 mph /  12.4 km/h - 1.8 mph /  2.9 km/h
Wind Gust: 12.7 mph /  20.4 km/h - -
Wind:- - West
Pressure: 30.10 in /  1019.2 hPa 29.82 in /  1009.7 hPa -
Precipitation: 0.00 in /  0 mm    
Historical Graphs
 
 
Tabular Data for August 20, 2017
Time Temperature Dew Point Pressure Wind Wind Speed Wind Gust Humidity Rainfall Rate (Hourly)
00:00 73.9 °F /  23.3 °C 68.1 °F /  20.1 °C 29.82 in /  1009.7 hPa Calm     82 % 0.00 in /  0 mm
00:05 73.9 °F /  23.3 °C 68.1 °F /  20.1 °C 29.82 in /  1009.7 hPa Calm     82 % 0.00 in /  0 mm
00:10 73.8 °F /  23.2 °C 68.3 °F /  20.2 °C 29.82 in /  1009.7 hPa Calm     83 % 0.00 in /  0 mm
00:15 73.7 °F /  23.2 °C 68.2 °F /  20.1 °C 29.82 in /  1009.7 hPa Calm     83 % 0.00 in /  0 mm
00:20 73.5 °F /  23.1 °C 67.7 °F /  19.8 °C 29.82 in /  1009.7 hPa Calm     82 % 0.00 in /  0 mm
00:25 73.5 °F /  23.1 °C 68.0 °F /  20 °C 29.82 in /  1009.7 hPa Calm     83 % 0.00 in /  0 mm
00:30 73.4 °F /  23 °C 67.9 °F /  19.9 °C 29.82 in /  1009.7 hPa WSW 0.7 mph /  1.1 km/h 2.3 mph /  3.7 km/h 83 % 0.00 in /  0 mm
00:35 73.3 °F /  22.9 °C 67.8 °F /  19.9 °C 29.82 in /  1009.7 hPa Calm   1.2 mph /  1.9 km/h 83 % 0.00 in /  0 mm
00:40 73.2 °F /  22.9 °C 67.7 °F /  19.8 °C 29.82 in /  1009.7 hPa Calm     83 % 0.00 in /  0 mm
00:45 73.1 °F /  22.8 °C 67.6 °F /  19.8 °C 29.82 in /  1009.7 hPa SW 0.1 mph /  0.2 km/h 1.2 mph /  1.9 km/h 83 % 0.00 in /  0 mm
00:50 73.0 °F /  22.8 °C 67.5 °F /  19.7 °C 29.83 in /  1010 hPa Calm   1.2 mph /  1.9 km/h 83 % 0.00 in /  0 mm
00:55 73.0 °F /  22.8 °C 67.5 °F /  19.7 °C 29.82 in /  1009.7 hPa Calm     83 % 0.00 in /  0 mm
01:00 73.0 °F /  22.8 °C 67.5 °F /  19.7 °C 29.82 in /  1009.7 hPa Calm     83 % 0.00 in /  0 mm
01:05 73.0 °F /  22.8 °C 67.5 °F /  19.7 °C 29.82 in /  1009.7 hPa SW 0.1 mph /  0.2 km/h 1.2 mph /  1.9 km/h 83 % 0.00 in /  0 mm
01:07 73.0 °F /  22.8 °C 67.5 °F /  19.7 °C 29.82 in /  1009.7 hPa SW 0.2 mph /  0.3 km/h 1.2 mph /  1.9 km/h 83 % 0.00 in /  0 mm
01:12 73.0 °F /  22.8 °C 67.5 °F /  19.7 °C 29.83 in /  1010 hPa West 1.2 mph /  1.9 km/h 4.0 mph /  6.4 km/h 83 % 0.00 in /  0 mm
01:17 73.1 °F /  22.8 °C 67.6 °F /  19.8 °C 29.83 in /  1010 hPa WSW 2.1 mph /  3.4 km/h 3.5 mph /  5.6 km/h 83 % 0.00 in /  0 mm
01:22 73.2 °F /  22.9 °C 67.7 °F /  19.8 °C 29.83 in /  1010 hPa WSW 1.5 mph /  2.4 km/h 3.5 mph /  5.6 km/h 83 % 0.00 in /  0 mm
01:27 73.3 °F /  22.9 °C 67.8 °F /  19.9 °C 29.83 in /  1010 hPa WSW 1.4 mph /  2.3 km/h 3.5 mph /  5.6 km/h 83 % 0.00 in /  0 mm
01:32 73.5 °F /  23.1 °C 67.7 °F /  19.8 °C 29.83 in /  1010 hPa Calm   1.2 mph /  1.9 km/h 82 % 0.00 in /  0 mm
01:36 73.5 °F /  23.1 °C 67.7 °F /  19.8 °C 29.83 in /  1010 hPa Calm     82 % 0.00 in /  0 mm
01:41 73.7 °F /  23.2 °C 67.9 °F /  19.9 °C 29.83 in /  1010 hPa SSW 0.5 mph /  0.8 km/h 1.2 mph /  1.9 km/h 82 % 0.00 in /  0 mm
01:46 73.7 °F /  23.2 °C 67.9 °F /  19.9 °C 29.84 in /  1010.4 hPa Calm     82 % 0.00 in /  0 mm
01:51 73.8 °F /  23.2 °C 68.0 °F /  20 °C 29.83 in /  1010 hPa Calm     82 % 0.00 in /  0 mm
01:56 73.8 °F /  23.2 °C 68.0 °F /  20 °C 29.83 in /  1010 hPa SSW 0.1 mph /  0.2 km/h 1.2 mph /  1.9 km/h 82 % 0.00 in /  0 mm
02:01 73.8 °F /  23.2 °C 68.0 °F /  20 °C 29.84 in /  1010.4 hPa Calm   1.2 mph /  1.9 km/h 82 % 0.00 in /  0 mm
02:06 73.8 °F /  23.2 °C 68.3 °F /  20.2 °C 29.84 in /  1010.4 hPa Calm   1.2 mph /  1.9 km/h 83 % 0.00 in /  0 mm
02:11 73.7 °F /  23.2 °C 68.2 °F /  20.1 °C 29.84 in /  1010.4 hPa Calm   1.2 mph /  1.9 km/h 83 % 0.00 in /  0 mm
02:16 73.7 °F /  23.2 °C 68.2 °F /  20.1 °C 29.84 in /  1010.4 hPa West 2.9 mph /  4.7 km/h 4.6 mph /  7.4 km/h 83 % 0.00 in /  0 mm
02:21 73.6 °F /  23.1 °C 68.5 °F /  20.3 °C 29.84 in /  1010.4 hPa WSW 1.0 mph /  1.6 km/h 3.5 mph /  5.6 km/h 84 % 0.00 in /  0 mm
02:26 73.5 °F /  23.1 °C 68.4 °F /  20.2 °C 29.84 in /  1010.4 hPa WSW 1.5 mph /  2.4 km/h 3.5 mph /  5.6 km/h 84 % 0.00 in /  0 mm
02:31 73.5 °F /  23.1 °C 68.4 °F /  20.2 °C 29.84 in /  1010.4 hPa WSW 0.1 mph /  0.2 km/h 1.2 mph /  1.9 km/h 84 % 0.00 in /  0 mm
02:36 73.5 °F /  23.1 °C 68.4 °F /  20.2 °C 29.83 in /  1010 hPa Calm     84 % 0.00 in /  0 mm
02:41 73.4 °F /  23 °C 68.3 °F /  20.2 °C 29.84 in /  1010.4 hPa Calm     84 % 0.00 in /  0 mm
02:46 73.4 °F /  23 °C 68.3 °F /  20.2 °C 29.84 in /  1010.4 hPa Calm     84 % 0.00 in /  0 mm
02:51 73.4 °F /  23 °C 68.6 °F /  20.3 °C 29.84 in /  1010.4 hPa SW 0.8 mph /  1.3 km/h 3.0 mph /  4.8 km/h 85 % 0.00 in /  0 mm
02:56 73.3 °F /  22.9 °C 68.5 °F /  20.3 °C 29.84 in /  1010.4 hPa West 1.2 mph /  1.9 km/h 2.3 mph /  3.7 km/h 85 % 0.00 in /  0 mm
03:01 73.3 °F /  22.9 °C 68.5 °F /  20.3 °C 29.84 in /  1010.4 hPa NW 0.6 mph /  1 km/h 2.0 mph /  3.2 km/h 85 % 0.00 in /  0 mm
03:06 73.3 °F /  22.9 °C 68.5 °F /  20.3 °C 29.85 in /  1010.7 hPa West 4.5 mph /  7.2 km/h 5.8 mph /  9.3 km/h 85 % 0.00 in /  0 mm
03:11 73.2 °F /  22.9 °C 68.4 °F /  20.2 °C 29.84 in /  1010.4 hPa West 2.0 mph /  3.2 km/h 4.0 mph /  6.4 km/h 85 % 0.00 in /  0 mm
03:16 73.1 °F /  22.8 °C 67.6 °F /  19.8 °C 29.85 in /  1010.7 hPa West 3.3 mph /  5.3 km/h 6.9 mph /  11.1 km/h 83 % 0.00 in /  0 mm
03:21 73.0 °F /  22.8 °C 67.2 °F /  19.6 °C 29.85 in /  1010.7 hPa NW 2.5 mph /  4 km/h 3.5 mph /  5.6 km/h 82 % 0.00 in /  0 mm
03:26 73.0 °F /  22.8 °C 66.8 °F /  19.3 °C 29.85 in /  1010.7 hPa West 3.3 mph /  5.3 km/h 5.8 mph /  9.3 km/h 81 % 0.00 in /  0 mm
03:31 73.0 °F /  22.8 °C 66.8 °F /  19.3 °C 29.85 in /  1010.7 hPa SSW 1.6 mph /  2.6 km/h 4.0 mph /  6.4 km/h 81 % 0.00 in /  0 mm
03:36 72.9 °F /  22.7 °C 66.4 °F /  19.1 °C 29.85 in /  1010.7 hPa WNW 4.1 mph /  6.6 km/h 5.8 mph /  9.3 km/h 80 % 0.00 in /  0 mm
03:41 72.9 °F /  22.7 °C 66.0 °F /  18.9 °C 29.85 in /  1010.7 hPa West 3.0 mph /  4.8 km/h 4.0 mph /  6.4 km/h 79 % 0.00 in /  0 mm
03:46 72.8 °F /  22.7 °C 65.5 °F /  18.6 °C 29.85 in /  1010.7 hPa West 1.4 mph /  2.3 km/h 3.5 mph /  5.6 km/h 78 % 0.00 in /  0 mm
03:52 72.8 °F /  22.7 °C 65.5 °F /  18.6 °C 29.85 in /  1010.7 hPa West 1.4 mph /  2.3 km/h 4.0 mph /  6.4 km/h 78 % 0.00 in /  0 mm
03:57 72.7 °F /  22.6 °C 65.4 °F /  18.6 °C 29.86 in /  1011.1 hPa WNW 4.2 mph /  6.8 km/h 6.9 mph /  11.1 km/h 78 % 0.00 in /  0 mm
04:02 72.6 °F /  22.6 °C 65.0 °F /  18.3 °C 29.86 in /  1011.1 hPa West 0.3 mph /  0.5 km/h 3.5 mph /  5.6 km/h 77 % 0.00 in /  0 mm
04:07 72.6 °F /  22.6 °C 65.0 °F /  18.3 °C 29.86 in /  1011.1 hPa WNW 4.0 mph /  6.4 km/h 5.8 mph /  9.3 km/h 77 % 0.00 in /  0 mm
04:12 72.6 °F /  22.6 °C 65.0 °F /  18.3 °C 29.86 in /  1011.1 hPa West 3.1 mph /  5 km/h 5.8 mph /  9.3 km/h 77 % 0.00 in /  0 mm
04:17 72.5 °F /  22.5 °C 65.2 °F /  18.4 °C 29.86 in /  1011.1 hPa WNW 4.1 mph /  6.6 km/h 8.1 mph /  13 km/h 78 % 0.00 in /  0 mm
04:22 72.4 °F /  22.4 °C 64.8 °F /  18.2 °C 29.87 in /  1011.4 hPa WSW 5.1 mph /  8.2 km/h 10.4 mph /  16.7 km/h 77 % 0.00 in /  0 mm
04:27 72.3 °F /  22.4 °C 64.7 °F /  18.2 °C 29.87 in /  1011.4 hPa WSW 3.5 mph /  5.6 km/h 6.9 mph /  11.1 km/h 77 % 0.00 in /  0 mm
04:32 72.2 °F /  22.3 °C 64.6 °F /  18.1 °C 29.87 in /  1011.4 hPa SW 3.4 mph /  5.5 km/h 6.9 mph /  11.1 km/h 77 % 0.00 in /  0 mm
04:37 72.2 °F /  22.3 °C 65.0 °F /  18.3 °C 29.87 in /  1011.4 hPa SSW 5.9 mph /  9.5 km/h 11.5 mph /  18.5 km/h 78 % 0.00 in /  0 mm
04:42 72.1 °F /  22.3 °C 64.9 °F /  18.3 °C 29.88 in /  1011.7 hPa NW 4.1 mph /  6.6 km/h 10.4 mph /  16.7 km/h 78 % 0.00 in /  0 mm
04:47 72.0 °F /  22.2 °C 65.1 °F /  18.4 °C 29.88 in /  1011.7 hPa SSW 3.0 mph /  4.8 km/h 6.9 mph /  11.1 km/h 79 % 0.00 in /  0 mm
04:52 71.8 °F /  22.1 °C 64.6 °F /  18.1 °C 29.88 in /  1011.7 hPa West 4.9 mph /  7.9 km/h 9.2 mph /  14.8 km/h 78 % 0.00 in /  0 mm
04:57 71.6 °F /  22 °C 64.7 °F /  18.2 °C 29.88 in /  1011.7 hPa SW 3.9 mph /  6.3 km/h 6.9 mph /  11.1 km/h 79 % 0.00 in /  0 mm
05:02 71.5 °F /  21.9 °C 64.6 °F /  18.1 °C 29.88 in /  1011.7 hPa West 3.0 mph /  4.8 km/h 5.8 mph /  9.3 km/h 79 % 0.00 in /  0 mm
05:07 71.3 °F /  21.8 °C 64.8 °F /  18.2 °C 29.88 in /  1011.7 hPa WNW 1.8 mph /  2.9 km/h 6.9 mph /  11.1 km/h 80 % 0.00 in /  0 mm
05:12 71.2 °F /  21.8 °C 64.7 °F /  18.2 °C 29.89 in /  1012.1 hPa West 2.3 mph /  3.7 km/h 4.0 mph /  6.4 km/h 80 % 0.00 in /  0 mm
05:17 71.1 °F /  21.7 °C 64.6 °F /  18.1 °C 29.89 in /  1012.1 hPa West 2.4 mph /  3.9 km/h 10.4 mph /  16.7 km/h 80 % 0.00 in /  0 mm
05:22 70.9 °F /  21.6 °C 64.4 °F /  18 °C 29.89 in /  1012.1 hPa WSW 3.4 mph /  5.5 km/h 9.2 mph /  14.8 km/h 80 % 0.00 in /  0 mm
05:27 70.9 °F /  21.6 °C 64.8 °F /  18.2 °C 29.89 in /  1012.1 hPa WSW 1.6 mph /  2.6 km/h 4.0 mph /  6.4 km/h 81 % 0.00 in /  0 mm
05:32 70.8 °F /  21.6 °C 64.7 °F /  18.2 °C 29.89 in /  1012.1 hPa WNW 2.1 mph /  3.4 km/h 5.8 mph /  9.3 km/h 81 % 0.00 in /  0 mm
05:37 70.6 °F /  21.4 °C 64.5 °F /  18.1 °C 29.89 in /  1012.1 hPa West 3.2 mph /  5.1 km/h 3.5 mph /  5.6 km/h 81 % 0.00 in /  0 mm
05:42 70.6 °F /  21.4 °C 64.5 °F /  18.1 °C 29.90 in /  1012.4 hPa NW 1.5 mph /  2.4 km/h 3.5 mph /  5.6 km/h 81 % 0.00 in /  0 mm
05:47 70.5 °F /  21.4 °C 64.4 °F /  18 °C 29.90 in /  1012.4 hPa WSW 2.1 mph /  3.4 km/h 4.6 mph /  7.4 km/h 81 % 0.00 in /  0 mm
05:52 70.4 °F /  21.3 °C 64.3 °F /  17.9 °C 29.90 in /  1012.4 hPa West 2.5 mph /  4 km/h 6.9 mph /  11.1 km/h 81 % 0.00 in /  0 mm
05:57 70.4 °F /  21.3 °C 64.3 °F /  17.9 °C 29.90 in /  1012.4 hPa West 3.3 mph /  5.3 km/h 6.9 mph /  11.1 km/h 81 % 0.00 in /  0 mm
06:02 70.3 °F /  21.3 °C 64.2 °F /  17.9 °C 29.90 in /  1012.4 hPa Calm   1.2 mph /  1.9 km/h 81 % 0.00 in /  0 mm
06:07 70.3 °F /  21.3 °C 64.5 °F /  18.1 °C 29.91 in /  1012.8 hPa West 0.7 mph /  1.1 km/h 3.5 mph /  5.6 km/h 82 % 0.00 in /  0 mm
06:13 70.2 °F /  21.2 °C 64.4 °F /  18 °C 29.91 in /  1012.8 hPa WSW 1.7 mph /  2.7 km/h 3.5 mph /  5.6 km/h 82 % 0.00 in /  0 mm
06:18 70.2 °F /  21.2 °C 64.4 °F /  18 °C 29.91 in /  1012.8 hPa WNW 3.1 mph /  5 km/h 6.9 mph /  11.1 km/h 82 % 0.00 in /  0 mm
06:23 70.1 °F /  21.2 °C 64.3 °F /  17.9 °C 29.92 in /  1013.1 hPa SW 4.5 mph /  7.2 km/h 8.1 mph /  13 km/h 82 % 0.00 in /  0 mm
06:28 70.0 °F /  21.1 °C 64.2 °F /  17.9 °C 29.92 in /  1013.1 hPa NW 2.1 mph /  3.4 km/h 3.5 mph /  5.6 km/h 82 % 0.00 in /  0 mm
06:33 70.0 °F /  21.1 °C 64.6 °F /  18.1 °C 29.92 in /  1013.1 hPa NW 2.2 mph /  3.5 km/h 5.8 mph /  9.3 km/h 83 % 0.00 in /  0 mm
06:38 69.9 °F /  21.1 °C 64.5 °F /  18.1 °C 29.92 in /  1013.1 hPa NW 1.6 mph /  2.6 km/h 5.8 mph /  9.3 km/h 83 % 0.00 in /  0 mm
06:43 69.9 °F /  21.1 °C 64.8 °F /  18.2 °C 29.92 in /  1013.1 hPa West 0.8 mph /  1.3 km/h 4.0 mph /  6.4 km/h 84 % 0.00 in /  0 mm
06:44 69.9 °F /  21.1 °C 64.8 °F /  18.2 °C 29.93 in /  1013.4 hPa West 0.7 mph /  1.1 km/h 5.8 mph /  9.3 km/h 84 % 0.00 in /  0 mm
06:49 69.9 °F /  21.1 °C 64.8 °F /  18.2 °C 29.93 in /  1013.4 hPa WNW 3.4 mph /  5.5 km/h 8.1 mph /  13 km/h 84 % 0.00 in /  0 mm
06:54 69.8 °F /  21 °C 64.7 °F /  18.2 °C 29.93 in /  1013.4 hPa WNW 2.7 mph /  4.3 km/h 5.8 mph /  9.3 km/h 84 % 0.00 in /  0 mm
06:59 69.8 °F /  21 °C 64.7 °F /  18.2 °C 29.93 in /  1013.4 hPa WNW 3.7 mph /  6 km/h 8.1 mph /  13 km/h 84 % 0.00 in /  0 mm
07:04 69.8 °F /  21 °C 64.7 °F /  18.2 °C 29.93 in /  1013.4 hPa West 5.0 mph /  8 km/h 10.4 mph /  16.7 km/h 84 % 0.00 in /  0 mm
07:09 69.9 °F /  21.1 °C 64.8 °F /  18.2 °C 29.93 in /  1013.4 hPa WNW 0.2 mph /  0.3 km/h 3.5 mph /  5.6 km/h 84 % 0.00 in /  0 mm
07:14 69.9 °F /  21.1 °C 64.8 °F /  18.2 °C 29.94 in /  1013.8 hPa East 1.6 mph /  2.6 km/h 6.9 mph /  11.1 km/h 84 % 0.00 in /  0 mm
07:19 69.9 °F /  21.1 °C 64.8 °F /  18.2 °C 29.94 in /  1013.8 hPa NW 2.6 mph /  4.2 km/h 10.4 mph /  16.7 km/h 84 % 0.00 in /  0 mm
07:24 69.9 °F /  21.1 °C 64.5 °F /  18.1 °C 29.94 in /  1013.8 hPa WNW 3.7 mph /  6 km/h 8.1 mph /  13 km/h 83 % 0.00 in /  0 mm
07:29 69.9 °F /  21.1 °C 64.8 °F /  18.2 °C 29.94 in /  1013.8 hPa West 0.5 mph /  0.8 km/h 4.6 mph /  7.4 km/h 84 % 0.00 in /  0 mm
07:34 69.9 °F /  21.1 °C 64.8 °F /  18.2 °C 29.95 in /  1014.1 hPa West 2.3 mph /  3.7 km/h 5.8 mph /  9.3 km/h 84 % 0.00 in /  0 mm
07:39 70.0 °F /  21.1 °C 64.9 °F /  18.3 °C 29.95 in /  1014.1 hPa WNW 1.5 mph /  2.4 km/h 6.9 mph /  11.1 km/h 84 % 0.00 in /  0 mm
07:44 70.0 °F /  21.1 °C 64.6 °F /  18.1 °C 29.95 in /  1014.1 hPa WNW 3.6 mph /  5.8 km/h 5.8 mph /  9.3 km/h 83 % 0.00 in /  0 mm
07:49 70.0 °F /  21.1 °C 64.6 °F /  18.1 °C 29.95 in /  1014.1 hPa WNW 3.3 mph /  5.3 km/h 5.8 mph /  9.3 km/h 83 % 0.00 in /  0 mm
07:54 70.1 °F /  21.2 °C 64.7 °F /  18.2 °C 29.96 in /  1014.4 hPa WNW 1.2 mph /  1.9 km/h 6.9 mph /  11.1 km/h 83 % 0.00 in /  0 mm
07:59 70.1 °F /  21.2 °C 64.7 °F /  18.2 °C 29.96 in /  1014.4 hPa West 2.0 mph /  3.2 km/h 6.9 mph /  11.1 km/h 83 % 0.00 in /  0 mm
08:04 70.1 °F /  21.2 °C 64.7 °F /  18.2 °C 29.96 in /  1014.4 hPa WNW 0.3 mph /  0.5 km/h 8.1 mph /  13 km/h 83 % 0.00 in /  0 mm
08:09 70.2 °F /  21.2 °C 64.4 °F /  18 °C 29.96 in /  1014.4 hPa WSW 4.1 mph /  6.6 km/h 8.1 mph /  13 km/h 82 % 0.00 in /  0 mm
08:15 70.2 °F /  21.2 °C 64.4 °F /  18 °C 29.96 in /  1014.4 hPa WSW 5.3 mph /  8.5 km/h 7.0 mph /  11.3 km/h 82 % 0.00 in /  0 mm
08:20 70.3 °F /  21.3 °C 64.5 °F /  18.1 °C 29.96 in /  1014.4 hPa WSW 2.4 mph /  3.9 km/h 6.9 mph /  11.1 km/h 82 % 0.00 in /  0 mm
08:25 70.4 °F /  21.3 °C 64.6 °F /  18.1 °C 29.96 in /  1014.4 hPa West 4.0 mph /  6.4 km/h 9.0 mph /  14.5 km/h 82 % 0.00 in /  0 mm
08:30 70.4 °F /  21.3 °C 64.6 °F /  18.1 °C 29.96 in /  1014.4 hPa NW 3.5 mph /  5.6 km/h 9.2 mph /  14.8 km/h 82 % 0.00 in /  0 mm
08:35 70.5 °F /  21.4 °C 64.4 °F /  18 °C 29.96 in /  1014.4 hPa West 7.7 mph /  12.4 km/h 11.5 mph /  18.5 km/h 81 % 0.00 in /  0 mm
08:40 70.6 °F /  21.4 °C 64.8 °F /  18.2 °C 29.96 in /  1014.4 hPa WNW 4.7 mph /  7.6 km/h 4.7 mph /  7.6 km/h 82 % 0.00 in /  0 mm
08:45 70.7 °F /  21.5 °C 64.9 °F /  18.3 °C 29.96 in /  1014.4 hPa WNW 0.7 mph /  1.1 km/h 3.5 mph /  5.6 km/h 82 % 0.00 in /  0 mm
08:50 70.8 °F /  21.6 °C 64.7 °F /  18.2 °C 29.96 in /  1014.4 hPa WNW 3.0 mph /  4.8 km/h 8.1 mph /  13 km/h 81 % 0.00 in /  0 mm
08:51 70.9 °F /  21.6 °C 64.8 °F /  18.2 °C 29.96 in /  1014.4 hPa WNW 2.7 mph /  4.3 km/h 6.9 mph /  11.1 km/h 81 % 0.00 in /  0 mm
08:56 71.1 °F /  21.7 °C 64.6 °F /  18.1 °C 29.96 in /  1014.4 hPa WSW 3.7 mph /  6 km/h 5.8 mph /  9.3 km/h 80 % 0.00 in /  0 mm
09:01 71.3 °F /  21.8 °C 64.8 °F /  18.2 °C 29.96 in /  1014.4 hPa West 3.4 mph /  5.5 km/h 5.8 mph /  9.3 km/h 80 % 0.00 in /  0 mm
09:06 71.4 °F /  21.9 °C 64.9 °F /  18.3 °C 29.97 in /  1014.8 hPa WNW 3.4 mph /  5.5 km/h 6.9 mph /  11.1 km/h 80 % 0.00 in /  0 mm
09:11 71.6 °F /  22 °C 64.7 °F /  18.2 °C 29.96 in /  1014.4 hPa NNW 4.7 mph /  7.6 km/h 9.0 mph /  14.5 km/h 79 % 0.00 in /  0 mm
09:16 71.8 °F /  22.1 °C 64.9 °F /  18.3 °C 29.97 in /  1014.8 hPa SSW 4.8 mph /  7.7 km/h 8.1 mph /  13 km/h 79 % 0.00 in /  0 mm
09:21 72.0 °F /  22.2 °C 65.1 °F /  18.4 °C 29.97 in /  1014.8 hPa WSW 1.5 mph /  2.4 km/h 5.8 mph /  9.3 km/h 79 % 0.00 in /  0 mm
09:26 72.1 °F /  22.3 °C 64.9 °F /  18.3 °C 29.96 in /  1014.4 hPa WNW 1.3 mph /  2.1 km/h 3.5 mph /  5.6 km/h 78 % 0.00 in /  0 mm
09:31 72.3 °F /  22.4 °C 65.4 °F /  18.6 °C 29.96 in /  1014.4 hPa WNW 1.4 mph /  2.3 km/h 4.6 mph /  7.4 km/h 79 % 0.00 in /  0 mm
09:37 72.5 °F /  22.5 °C 65.2 °F /  18.4 °C 29.96 in /  1014.4 hPa West 1.5 mph /  2.4 km/h 5.0 mph /  8 km/h 78 % 0.00 in /  0 mm
09:42 72.8 °F /  22.7 °C 65.5 °F /  18.6 °C 29.97 in /  1014.8 hPa WNW 2.9 mph /  4.7 km/h 6.9 mph /  11.1 km/h 78 % 0.00 in /  0 mm
09:47 73.2 °F /  22.9 °C 65.9 °F /  18.8 °C 29.97 in /  1014.8 hPa North 4.0 mph /  6.4 km/h 4.0 mph /  6.4 km/h 78 % 0.00 in /  0 mm
09:52 73.9 °F /  23.3 °C 67.0 °F /  19.4 °C 29.97 in /  1014.8 hPa WNW 1.2 mph /  1.9 km/h 2.3 mph /  3.7 km/h 79 % 0.00 in /  0 mm
09:57 74.7 °F /  23.7 °C 66.6 °F /  19.2 °C 29.97 in /  1014.8 hPa WNW 2.9 mph /  4.7 km/h 8.1 mph /  13 km/h 76 % 0.00 in /  0 mm
10:02 75.6 °F /  24.2 °C 67.5 °F /  19.7 °C 29.97 in /  1014.8 hPa WNW 3.7 mph /  6 km/h 7.0 mph /  11.3 km/h 76 % 0.00 in /  0 mm
10:07 76.2 °F /  24.6 °C 66.9 °F /  19.4 °C 29.98 in /  1015.1 hPa NNW 2.2 mph /  3.5 km/h 3.5 mph /  5.6 km/h 73 % 0.00 in /  0 mm
10:12 76.6 °F /  24.8 °C 66.9 °F /  19.4 °C 29.98 in /  1015.1 hPa WNW 2.2 mph /  3.5 km/h 5.8 mph /  9.3 km/h 72 % 0.00 in /  0 mm
10:17 76.8 °F /  24.9 °C 66.3 °F /  19.1 °C 29.98 in /  1015.1 hPa WNW 2.7 mph /  4.3 km/h 5.8 mph /  9.3 km/h 70 % 0.00 in /  0 mm
10:22 77.0 °F /  25 °C 66.9 °F /  19.4 °C 29.98 in /  1015.1 hPa West 0.7 mph /  1.1 km/h 3.5 mph /  5.6 km/h 71 % 0.00 in /  0 mm
10:27 77.3 °F /  25.2 °C 66.7 °F /  19.3 °C 29.97 in /  1014.8 hPa WNW 1.6 mph /  2.6 km/h 3.5 mph /  5.6 km/h 70 % 0.00 in /  0 mm
10:32 77.6 °F /  25.3 °C 67.0 °F /  19.4 °C 29.98 in /  1015.1 hPa WNW 3.2 mph /  5.1 km/h 6.0 mph /  9.7 km/h 70 % 0.00 in /  0 mm
10:37 78.1 °F /  25.6 °C 67.9 °F /  19.9 °C 29.98 in /  1015.1 hPa NW 3.1 mph /  5 km/h 5.8 mph /  9.3 km/h 71 % 0.00 in /  0 mm
10:42 78.6 °F /  25.9 °C 67.2 °F /  19.6 °C 29.98 in /  1015.1 hPa NNE 2.8 mph /  4.5 km/h 4.6 mph /  7.4 km/h 68 % 0.00 in /  0 mm
10:47 79.3 °F /  26.3 °C 68.2 °F /  20.1 °C 29.98 in /  1015.1 hPa WNW 2.0 mph /  3.2 km/h 4.6 mph /  7.4 km/h 69 % 0.00 in /  0 mm
10:52 79.9 °F /  26.6 °C 68.8 °F /  20.4 °C 29.98 in /  1015.1 hPa NNE 0.6 mph /  1 km/h 1.2 mph /  1.9 km/h 69 % 0.00 in /  0 mm
10:57 80.6 °F /  27 °C 68.6 °F /  20.3 °C 29.98 in /  1015.1 hPa WSW 0.9 mph /  1.4 km/h 2.3 mph /  3.7 km/h 67 % 0.00 in /  0 mm
11:02 81.2 °F /  27.3 °C 69.2 °F /  20.7 °C 29.99 in /  1015.5 hPa North 0.5 mph /  0.8 km/h 4.6 mph /  7.4 km/h 67 % 0.00 in /  0 mm
11:07 81.8 °F /  27.7 °C 68.0 °F /  20 °C 29.99 in /  1015.5 hPa WNW 2.1 mph /  3.4 km/h 4.0 mph /  6.4 km/h 63 % 0.00 in /  0 mm
11:12 82.3 °F /  27.9 °C 68.4 °F /  20.2 °C 29.99 in /  1015.5 hPa NE 2.2 mph /  3.5 km/h 4.6 mph /  7.4 km/h 63 % 0.00 in /  0 mm
11:17 82.9 °F /  28.3 °C 68.5 °F /  20.3 °C 29.99 in /  1015.5 hPa WNW 1.4 mph /  2.3 km/h 3.5 mph /  5.6 km/h 62 % 0.00 in /  0 mm
11:22 83.5 °F /  28.6 °C 69.1 °F /  20.6 °C 29.99 in /  1015.5 hPa West 0.1 mph /  0.2 km/h 1.2 mph /  1.9 km/h 62 % 0.00 in /  0 mm
11:27 83.9 °F /  28.8 °C 67.5 °F /  19.7 °C 29.99 in /  1015.5 hPa NW 2.6 mph /  4.2 km/h 5.8 mph /  9.3 km/h 58 % 0.00 in /  0 mm
11:32 84.3 °F /  29.1 °C 67.9 °F /  19.9 °C 29.99 in /  1015.5 hPa WNW 0.2 mph /  0.3 km/h 3.5 mph /  5.6 km/h 58 % 0.00 in /  0 mm
11:37 84.6 °F /  29.2 °C 69.2 °F /  20.7 °C 29.99 in /  1015.5 hPa North 0.9 mph /  1.4 km/h 3.5 mph /  5.6 km/h 60 % 0.00 in /  0 mm
11:38 84.6 °F /  29.2 °C 68.7 °F /  20.4 °C 29.99 in /  1015.5 hPa NW 1.4 mph /  2.3 km/h 3.5 mph /  5.6 km/h 59 % 0.00 in /  0 mm
11:43 84.9 °F /  29.4 °C 68.0 °F /  20 °C 29.99 in /  1015.5 hPa NNE 4.0 mph /  6.4 km/h 5.8 mph /  9.3 km/h 57 % 0.00 in /  0 mm
11:48 85.1 °F /  29.5 °C 68.2 °F /  20.1 °C 29.99 in /  1015.5 hPa NW 2.2 mph /  3.5 km/h 3.5 mph /  5.6 km/h 57 % 0.00 in /  0 mm
11:53 85.3 °F /  29.6 °C 68.8 °F /  20.4 °C 29.99 in /  1015.5 hPa WNW 2.0 mph /  3.2 km/h 3.5 mph /  5.6 km/h 58 % 0.00 in /  0 mm
11:58 85.4 °F /  29.7 °C 65.8 °F /  18.8 °C 29.99 in /  1015.5 hPa WNW 2.4 mph /  3.9 km/h 4.6 mph /  7.4 km/h 52 % 0.00 in /  0 mm
12:03 85.5 °F /  29.7 °C 68.5 °F /  20.3 °C 29.99 in /  1015.5 hPa West 0.8 mph /  1.3 km/h 2.3 mph /  3.7 km/h 57 % 0.00 in /  0 mm
12:08 85.6 °F /  29.8 °C 67.0 °F /  19.4 °C 29.99 in /  1015.5 hPa WSW 0.7 mph /  1.1 km/h 3.0 mph /  4.8 km/h 54 % 0.00 in /  0 mm
12:13 85.6 °F /  29.8 °C 67.6 °F /  19.8 °C 29.99 in /  1015.5 hPa WNW 3.1 mph /  5 km/h 3.5 mph /  5.6 km/h 55 % 0.00 in /  0 mm
12:18 85.7 °F /  29.8 °C 68.2 °F /  20.1 °C 29.99 in /  1015.5 hPa West 0.3 mph /  0.5 km/h 1.2 mph /  1.9 km/h 56 % 0.00 in /  0 mm
12:23 86.0 °F /  30 °C 67.4 °F /  19.7 °C 29.99 in /  1015.5 hPa NW 3.2 mph /  5.1 km/h 5.8 mph /  9.3 km/h 54 % 0.00 in /  0 mm
12:28 86.1 °F /  30.1 °C 69.1 °F /  20.6 °C 29.99 in /  1015.5 hPa WNW 2.6 mph /  4.2 km/h 3.5 mph /  5.6 km/h 57 % 0.00 in /  0 mm
12:33 86.3 °F /  30.2 °C 67.7 °F /  19.8 °C 29.99 in /  1015.5 hPa West 2.3 mph /  3.7 km/h 4.6 mph /  7.4 km/h 54 % 0.00 in /  0 mm
12:38 86.3 °F /  30.2 °C 68.2 °F /  20.1 °C 29.99 in /  1015.5 hPa NNE 2.3 mph /  3.7 km/h 4.6 mph /  7.4 km/h 55 % 0.00 in /  0 mm
12:43 86.5 °F /  30.3 °C 68.9 °F /  20.5 °C 29.99 in /  1015.5 hPa NNW 1.6 mph /  2.6 km/h 3.5 mph /  5.6 km/h 56 % 0.00 in /  0 mm
12:48 86.7 °F /  30.4 °C 68.1 °F /  20.1 °C 29.99 in /  1015.5 hPa North 1.4 mph /  2.3 km/h 3.0 mph /  4.8 km/h 54 % 0.00 in /  0 mm
12:53 86.8 °F /  30.4 °C 67.6 °F /  19.8 °C 29.99 in /  1015.5 hPa WNW 2.8 mph /  4.5 km/h 3.5 mph /  5.6 km/h 53 % 0.00 in /  0 mm
12:58 86.7 °F /  30.4 °C 68.1 °F /  20.1 °C 29.99 in /  1015.5 hPa WSW 2.7 mph /  4.3 km/h 6.9 mph /  11.1 km/h 54 % 0.00 in /  0 mm
13:03 86.7 °F /  30.4 °C 69.1 °F /  20.6 °C 29.99 in /  1015.5 hPa NNE 0.8 mph /  1.3 km/h 4.6 mph /  7.4 km/h 56 % 0.00 in /  0 mm
13:09 86.7 °F /  30.4 °C 69.1 °F /  20.6 °C 30.00 in /  1015.8 hPa SW 4.3 mph /  6.9 km/h 10.4 mph /  16.7 km/h 56 % 0.00 in /  0 mm
13:14 86.5 °F /  30.3 °C 67.9 °F /  19.9 °C 30.00 in /  1015.8 hPa WSW 1.7 mph /  2.7 km/h 4.6 mph /  7.4 km/h 54 % 0.00 in /  0 mm
13:19 86.5 °F /  30.3 °C 68.4 °F /  20.2 °C 30.00 in /  1015.8 hPa WSW 1.3 mph /  2.1 km/h 3.5 mph /  5.6 km/h 55 % 0.00 in /  0 mm
13:24 86.5 °F /  30.3 °C 68.4 °F /  20.2 °C 30.00 in /  1015.8 hPa NW 2.6 mph /  4.2 km/h 4.6 mph /  7.4 km/h 55 % 0.00 in /  0 mm
13:27 86.5 °F /  30.3 °C 70.0 °F /  21.1 °C 30.00 in /  1015.8 hPa WSW 1.8 mph /  2.9 km/h 3.5 mph /  5.6 km/h 58 % 0.00 in /  0 mm
13:32 86.4 °F /  30.2 °C 67.2 °F /  19.6 °C 30.00 in /  1015.8 hPa SSW 3.3 mph /  5.3 km/h 6.9 mph /  11.1 km/h 53 % 0.00 in /  0 mm
13:37 86.4 °F /  30.2 °C 67.8 °F /  19.9 °C 30.00 in /  1015.8 hPa West 1.2 mph /  1.9 km/h 6.9 mph /  11.1 km/h 54 % 0.00 in /  0 mm
13:43 86.5 °F /  30.3 °C 67.9 °F /  19.9 °C 30.00 in /  1015.8 hPa WSW 3.6 mph /  5.8 km/h 11.5 mph /  18.5 km/h 54 % 0.00 in /  0 mm
13:48 86.5 °F /  30.3 °C 67.9 °F /  19.9 °C 30.00 in /  1015.8 hPa West 3.8 mph /  6.1 km/h 6.9 mph /  11.1 km/h 54 % 0.00 in /  0 mm
13:53 86.5 °F /  30.3 °C 68.4 °F /  20.2 °C 30.00 in /  1015.8 hPa SW 3.4 mph /  5.5 km/h 6.0 mph /  9.7 km/h 55 % 0.00 in /  0 mm
13:58 86.4 °F /  30.2 °C 67.8 °F /  19.9 °C 30.00 in /  1015.8 hPa WNW 3.0 mph /  4.8 km/h 6.0 mph /  9.7 km/h 54 % 0.00 in /  0 mm
14:03 86.5 °F /  30.3 °C 68.9 °F /  20.5 °C 30.00 in /  1015.8 hPa WNW 1.2 mph /  1.9 km/h 4.0 mph /  6.4 km/h 56 % 0.00 in /  0 mm
14:08 86.4 °F /  30.2 °C 66.7 °F /  19.3 °C 30.00 in /  1015.8 hPa WNW 5.3 mph /  8.5 km/h 9.2 mph /  14.8 km/h 52 % 0.00 in /  0 mm
14:13 86.4 °F /  30.2 °C 67.8 °F /  19.9 °C 30.00 in /  1015.8 hPa WSW 1.3 mph /  2.1 km/h 6.0 mph /  9.7 km/h 54 % 0.00 in /  0 mm
14:18 86.3 °F /  30.2 °C 66.6 °F /  19.2 °C 30.00 in /  1015.8 hPa NW 4.7 mph /  7.6 km/h 8.1 mph /  13 km/h 52 % 0.00 in /  0 mm
14:23 86.2 °F /  30.1 °C 68.1 °F /  20.1 °C 30.00 in /  1015.8 hPa West 1.2 mph /  1.9 km/h 9.2 mph /  14.8 km/h 55 % 0.00 in /  0 mm
14:28 86.1 °F /  30.1 °C 65.9 °F /  18.8 °C 30.00 in /  1015.8 hPa WNW 5.4 mph /  8.7 km/h 6.9 mph /  11.1 km/h 51 % 0.00 in /  0 mm
14:33 85.9 °F /  29.9 °C 66.2 °F /  19 °C 30.00 in /  1015.8 hPa West 6.6 mph /  10.6 km/h 6.6 mph /  10.6 km/h 52 % 0.00 in /  0 mm
14:38 85.7 °F /  29.8 °C 67.7 °F /  19.8 °C 30.00 in /  1015.8 hPa WSW 3.2 mph /  5.1 km/h 7.0 mph /  11.3 km/h 55 % 0.00 in /  0 mm
14:43 85.6 °F /  29.8 °C 66.0 °F /  18.9 °C 30.00 in /  1015.8 hPa WNW 5.7 mph /  9.2 km/h 9.2 mph /  14.8 km/h 52 % 0.00 in /  0 mm
14:48 85.4 °F /  29.7 °C 65.2 °F /  18.4 °C 30.00 in /  1015.8 hPa WNW 4.2 mph /  6.8 km/h 9.2 mph /  14.8 km/h 51 % 0.00 in /  0 mm
14:54 85.3 °F /  29.6 °C 65.7 °F /  18.7 °C 30.00 in /  1015.8 hPa North 5.5 mph /  8.9 km/h 9.2 mph /  14.8 km/h 52 % 0.00 in /  0 mm
14:55 85.3 °F /  29.6 °C 66.8 °F /  19.3 °C 30.00 in /  1015.8 hPa WNW 2.5 mph /  4 km/h 5.0 mph /  8 km/h 54 % 0.00 in /  0 mm
15:00 85.3 °F /  29.6 °C 66.2 °F /  19 °C 30.00 in /  1015.8 hPa WNW 4.8 mph /  7.7 km/h 9.2 mph /  14.8 km/h 53 % 0.00 in /  0 mm
15:05 85.3 °F /  29.6 °C 66.2 °F /  19 °C 30.00 in /  1015.8 hPa WNW 2.6 mph /  4.2 km/h 5.0 mph /  8 km/h 53 % 0.00 in /  0 mm
15:10 85.3 °F /  29.6 °C 65.7 °F /  18.7 °C 29.99 in /  1015.5 hPa West 3.0 mph /  4.8 km/h 7.0 mph /  11.3 km/h 52 % 0.00 in /  0 mm
15:15 85.2 °F /  29.6 °C 64.5 °F /  18.1 °C 29.99 in /  1015.5 hPa SW 7.4 mph /  11.9 km/h 12.7 mph /  20.4 km/h 50 % 0.00 in /  0 mm
15:20 85.1 °F /  29.5 °C 64.9 °F /  18.3 °C 30.00 in /  1015.8 hPa SW 5.1 mph /  8.2 km/h 8.1 mph /  13 km/h 51 % 0.00 in /  0 mm
15:21 85.2 °F /  29.6 °C 65.0 °F /  18.3 °C 30.00 in /  1015.8 hPa West 5.0 mph /  8 km/h 8.0 mph /  12.9 km/h 51 % 0.00 in /  0 mm
15:26 85.1 °F /  29.5 °C 66.0 °F /  18.9 °C 29.99 in /  1015.5 hPa West 3.0 mph /  4.8 km/h 9.0 mph /  14.5 km/h 53 % 0.00 in /  0 mm
15:28 85.1 °F /  29.5 °C 66.0 °F /  18.9 °C 30.00 in /  1015.8 hPa WSW 3.9 mph /  6.3 km/h 5.8 mph /  9.3 km/h 53 % 0.00 in /  0 mm
15:33 85.2 °F /  29.6 °C 65.0 °F /  18.3 °C 29.99 in /  1015.5 hPa SW 2.9 mph /  4.7 km/h 6.9 mph /  11.1 km/h 51 % 0.00 in /  0 mm
15:38 85.2 °F /  29.6 °C 65.0 °F /  18.3 °C 30.00 in /  1015.8 hPa WNW 4.7 mph /  7.6 km/h 8.1 mph /  13 km/h 51 % 0.00 in /  0 mm
15:43 85.3 °F /  29.6 °C 65.7 °F /  18.7 °C 29.99 in /  1015.5 hPa NW 4.4 mph /  7.1 km/h 6.9 mph /  11.1 km/h 52 % 0.00 in /  0 mm
15:49 85.3 °F /  29.6 °C 65.7 °F /  18.7 °C 29.99 in /  1015.5 hPa NW 4.2 mph /  6.8 km/h 5.0 mph /  8 km/h 52 % 0.00 in /  0 mm
15:54 85.4 °F /  29.7 °C 66.9 °F /  19.4 °C 29.99 in /  1015.5 hPa WNW 2.2 mph /  3.5 km/h 6.0 mph /  9.7 km/h 54 % 0.00 in /  0 mm
15:59 85.4 °F /  29.7 °C 65.8 °F /  18.8 °C 29.99 in /  1015.5 hPa North 2.9 mph /  4.7 km/h 8.1 mph /  13 km/h 52 % 0.00 in /  0 mm
16:04 85.4 °F /  29.7 °C 64.6 °F /  18.1 °C 30.00 in /  1015.8 hPa West 3.4 mph /  5.5 km/h 9.2 mph /  14.8 km/h 50 % 0.00 in /  0 mm
16:09 85.4 °F /  29.7 °C 64.6 °F /  18.1 °C 29.99 in /  1015.5 hPa SW 5.1 mph /  8.2 km/h 9.2 mph /  14.8 km/h 50 % 0.00 in /  0 mm
16:14 85.4 °F /  29.7 °C 66.9 °F /  19.4 °C 30.00 in /  1015.8 hPa NW 1.6 mph /  2.6 km/h 4.0 mph /  6.4 km/h 54 % 0.00 in /  0 mm
16:19 85.4 °F /  29.7 °C 64.6 °F /  18.1 °C 30.00 in /  1015.8 hPa WNW 3.0 mph /  4.8 km/h 8.1 mph /  13 km/h 50 % 0.00 in /  0 mm
16:24 85.4 °F /  29.7 °C 64.6 °F /  18.1 °C 30.00 in /  1015.8 hPa West 3.8 mph /  6.1 km/h 5.8 mph /  9.3 km/h 50 % 0.00 in /  0 mm
16:29 85.4 °F /  29.7 °C 65.8 °F /  18.8 °C 30.00 in /  1015.8 hPa NNE 0.6 mph /  1 km/h 5.8 mph /  9.3 km/h 52 % 0.00 in /  0 mm
16:34 85.4 °F /  29.7 °C 65.2 °F /  18.4 °C 30.00 in /  1015.8 hPa NW 4.1 mph /  6.6 km/h 8.1 mph /  13 km/h 51 % 0.00 in /  0 mm
16:39 85.3 °F /  29.6 °C 64.6 °F /  18.1 °C 30.00 in /  1015.8 hPa West 3.2 mph /  5.1 km/h 3.5 mph /  5.6 km/h 50 % 0.00 in /  0 mm
16:44 85.3 °F /  29.6 °C 65.7 °F /  18.7 °C 30.00 in /  1015.8 hPa WNW 1.1 mph /  1.8 km/h 3.5 mph /  5.6 km/h 52 % 0.00 in /  0 mm
16:49 85.4 °F /  29.7 °C 65.2 °F /  18.4 °C 30.00 in /  1015.8 hPa West 4.4 mph /  7.1 km/h 6.9 mph /  11.1 km/h 51 % 0.00 in /  0 mm
16:54 85.2 °F /  29.6 °C 65.6 °F /  18.7 °C 30.00 in /  1015.8 hPa WNW 2.7 mph /  4.3 km/h 4.0 mph /  6.4 km/h 52 % 0.00 in /  0 mm
16:59 85.1 °F /  29.5 °C 66.0 °F /  18.9 °C 30.00 in /  1015.8 hPa Calm   1.2 mph /  1.9 km/h 53 % 0.00 in /  0 mm
17:04 85.0 °F /  29.4 °C 64.8 °F /  18.2 °C 30.00 in /  1015.8 hPa NW 1.0 mph /  1.6 km/h 8.1 mph /  13 km/h 51 % 0.00 in /  0 mm
17:09 84.7 °F /  29.3 °C 63.4 °F /  17.4 °C 30.00 in /  1015.8 hPa WNW 3.3 mph /  5.3 km/h 4.6 mph /  7.4 km/h 49 % 0.00 in /  0 mm
17:14 84.5 °F /  29.2 °C 64.4 °F /  18 °C 30.00 in /  1015.8 hPa WNW 0.9 mph /  1.4 km/h 3.5 mph /  5.6 km/h 51 % 0.00 in /  0 mm
17:19 84.4 °F /  29.1 °C 64.9 °F /  18.3 °C 30.00 in /  1015.8 hPa WNW 3.3 mph /  5.3 km/h 4.6 mph /  7.4 km/h 52 % 0.00 in /  0 mm
17:24 84.3 °F /  29.1 °C 65.8 °F /  18.8 °C 30.00 in /  1015.8 hPa WNW 3.1 mph /  5 km/h 5.8 mph /  9.3 km/h 54 % 0.00 in /  0 mm
17:29 84.1 °F /  28.9 °C 65.1 °F /  18.4 °C 30.00 in /  1015.8 hPa NW 2.3 mph /  3.7 km/h 4.6 mph /  7.4 km/h 53 % 0.00 in /  0 mm
17:34 83.9 °F /  28.8 °C 64.4 °F /  18 °C 30.00 in /  1015.8 hPa NW 3.9 mph /  6.3 km/h 5.8 mph /  9.3 km/h 52 % 0.00 in /  0 mm
17:39 83.7 °F /  28.7 °C 65.3 °F /  18.5 °C 30.00 in /  1015.8 hPa WNW 1.0 mph /  1.6 km/h 4.6 mph /  7.4 km/h 54 % 0.00 in /  0 mm
17:44 83.5 °F /  28.6 °C 65.1 °F /  18.4 °C 30.01 in /  1016.1 hPa Calm   1.0 mph /  1.6 km/h 54 % 0.00 in /  0 mm
17:49 83.3 °F /  28.5 °C 65.4 °F /  18.6 °C 30.01 in /  1016.1 hPa WNW 1.0 mph /  1.6 km/h 3.5 mph /  5.6 km/h 55 % 0.00 in /  0 mm
17:54 83.0 °F /  28.3 °C 65.2 °F /  18.4 °C 30.01 in /  1016.1 hPa NNW 0.7 mph /  1.1 km/h 5.8 mph /  9.3 km/h 55 % 0.00 in /  0 mm
17:59 82.8 °F /  28.2 °C 65.5 °F /  18.6 °C 30.01 in /  1016.1 hPa WNW 0.5 mph /  0.8 km/h 3.0 mph /  4.8 km/h 56 % 0.00 in /  0 mm
18:04 82.5 °F /  28.1 °C 65.2 °F /  18.4 °C 30.01 in /  1016.1 hPa NNW 0.2 mph /  0.3 km/h 1.2 mph /  1.9 km/h 56 % 0.00 in /  0 mm
18:09 82.2 °F /  27.9 °C 64.4 °F /  18 °C 30.01 in /  1016.1 hPa NW 1.6 mph /  2.6 km/h 4.6 mph /  7.4 km/h 55 % 0.00 in /  0 mm
18:14 82.0 °F /  27.8 °C 64.2 °F /  17.9 °C 30.00 in /  1015.8 hPa West 2.3 mph /  3.7 km/h 4.6 mph /  7.4 km/h 55 % 0.00 in /  0 mm
18:19 81.8 °F /  27.7 °C 64.6 °F /  18.1 °C 30.01 in /  1016.1 hPa WNW 1.2 mph /  1.9 km/h 3.5 mph /  5.6 km/h 56 % 0.00 in /  0 mm
18:24 81.7 °F /  27.6 °C 65.0 °F /  18.3 °C 30.01 in /  1016.1 hPa WNW 0.2 mph /  0.3 km/h 2.3 mph /  3.7 km/h 57 % 0.00 in /  0 mm
18:29 81.5 °F /  27.5 °C 65.8 °F /  18.8 °C 30.01 in /  1016.1 hPa WNW 0.3 mph /  0.5 km/h 2.3 mph /  3.7 km/h 59 % 0.00 in /  0 mm
18:34 81.3 °F /  27.4 °C 65.6 °F /  18.7 °C 30.01 in /  1016.1 hPa WNW 0.7 mph /  1.1 km/h 2.3 mph /  3.7 km/h 59 % 0.00 in /  0 mm
18:39 81.0 °F /  27.2 °C 65.3 °F /  18.5 °C 30.01 in /  1016.1 hPa WNW 0.6 mph /  1 km/h 2.3 mph /  3.7 km/h 59 % 0.00 in /  0 mm
18:45 80.8 °F /  27.1 °C 64.6 °F /  18.1 °C 30.01 in /  1016.1 hPa Calm   3.5 mph /  5.6 km/h 58 % 0.00 in /  0 mm
18:51 80.6 °F /  27 °C 64.5 °F /  18.1 °C 30.01 in /  1016.1 hPa WNW 2.1 mph /  3.4 km/h 3.5 mph /  5.6 km/h 58 % 0.00 in /  0 mm
18:56 80.4 °F /  26.9 °C 64.8 °F /  18.2 °C 30.01 in /  1016.1 hPa Calm   1.2 mph /  1.9 km/h 59 % 0.00 in /  0 mm
19:05 80.1 °F /  26.7 °C 64.5 °F /  18.1 °C 30.02 in /  1016.5 hPa WNW 1.0 mph /  1.6 km/h 3.0 mph /  4.8 km/h 59 % 0.00 in /  0 mm
19:16 79.8 °F /  26.6 °C 64.2 °F /  17.9 °C 30.02 in /  1016.5 hPa WNW 1.0 mph /  1.6 km/h 3.0 mph /  4.8 km/h 59 % 0.00 in /  0 mm
19:21 79.3 °F /  26.3 °C 63.7 °F /  17.6 °C 30.02 in /  1016.5 hPa Calm     59 % 0.00 in /  0 mm
19:26 79.1 °F /  26.2 °C 64.0 °F /  17.8 °C 30.02 in /  1016.5 hPa Calm     60 % 0.00 in /  0 mm
19:31 78.8 °F /  26 °C 64.2 °F /  17.9 °C 30.03 in /  1016.8 hPa Calm   1.2 mph /  1.9 km/h 61 % 0.00 in /  0 mm
19:36 78.6 °F /  25.9 °C 64.5 °F /  18.1 °C 30.02 in /  1016.5 hPa Calm     62 % 0.00 in /  0 mm
19:41 78.3 °F /  25.7 °C 65.1 °F /  18.4 °C 30.03 in /  1016.8 hPa West 0.1 mph /  0.2 km/h 1.2 mph /  1.9 km/h 64 % 0.00 in /  0 mm
19:46 78.1 °F /  25.6 °C 65.4 °F /  18.6 °C 30.03 in /  1016.8 hPa West 1.1 mph /  1.8 km/h 2.3 mph /  3.7 km/h 65 % 0.00 in /  0 mm
19:51 77.8 °F /  25.4 °C 65.5 °F /  18.6 °C 30.03 in /  1016.8 hPa West 1.5 mph /  2.4 km/h 2.3 mph /  3.7 km/h 66 % 0.00 in /  0 mm
19:56 77.5 °F /  25.3 °C 65.2 °F /  18.4 °C 30.03 in /  1016.8 hPa West 0.8 mph /  1.3 km/h 1.2 mph /  1.9 km/h 66 % 0.00 in /  0 mm
20:01 77.2 °F /  25.1 °C 65.0 °F /  18.3 °C 30.03 in /  1016.8 hPa West 0.3 mph /  0.5 km/h 1.2 mph /  1.9 km/h 66 % 0.00 in /  0 mm
20:06 76.9 °F /  24.9 °C 64.7 °F /  18.2 °C 30.03 in /  1016.8 hPa West 0.4 mph /  0.6 km/h 1.2 mph /  1.9 km/h 66 % 0.00 in /  0 mm
20:11 76.6 °F /  24.8 °C 64.8 °F /  18.2 °C 30.03 in /  1016.8 hPa Calm   1.2 mph /  1.9 km/h 67 % 0.00 in /  0 mm
20:16 76.3 °F /  24.6 °C 64.5 °F /  18.1 °C 30.03 in /  1016.8 hPa West 0.5 mph /  0.8 km/h 2.3 mph /  3.7 km/h 67 % 0.00 in /  0 mm
20:21 76.1 °F /  24.5 °C 65.6 °F /  18.7 °C 30.03 in /  1016.8 hPa Calm     70 % 0.00 in /  0 mm
20:26 75.8 °F /  24.3 °C 65.3 °F /  18.5 °C 30.03 in /  1016.8 hPa Calm     70 % 0.00 in /  0 mm
20:28 75.7 °F /  24.3 °C 65.2 °F /  18.4 °C 30.03 in /  1016.8 hPa Calm   3.5 mph /  5.6 km/h 70 % 0.00 in /  0 mm
20:33 75.4 °F /  24.1 °C 65.3 °F /  18.5 °C 30.04 in /  1017.2 hPa Calm     71 % 0.00 in /  0 mm
20:38 75.1 °F /  23.9 °C 65.1 °F /  18.4 °C 30.04 in /  1017.2 hPa Calm     71 % 0.00 in /  0 mm
20:43 74.9 °F /  23.8 °C 65.3 °F /  18.5 °C 30.04 in /  1017.2 hPa Calm     72 % 0.00 in /  0 mm
20:48 74.6 °F /  23.7 °C 65.0 °F /  18.3 °C 30.05 in /  1017.5 hPa Calm     72 % 0.00 in /  0 mm
20:53 74.3 °F /  23.5 °C 65.1 °F /  18.4 °C 30.05 in /  1017.5 hPa Calm   1.2 mph /  1.9 km/h 73 % 0.00 in /  0 mm
20:58 74.0 °F /  23.3 °C 64.8 °F /  18.2 °C 30.05 in /  1017.5 hPa West 0.2 mph /  0.3 km/h 1.0 mph /  1.6 km/h 73 % 0.00 in /  0 mm
21:03 73.8 °F /  23.2 °C 64.6 °F /  18.1 °C 30.05 in /  1017.5 hPa West 0.1 mph /  0.2 km/h 1.2 mph /  1.9 km/h 73 % 0.00 in /  0 mm
21:08 73.5 °F /  23.1 °C 64.3 °F /  17.9 °C 30.05 in /  1017.5 hPa Calm     73 % 0.00 in /  0 mm
21:13 73.3 °F /  22.9 °C 64.1 °F /  17.8 °C 30.06 in /  1017.8 hPa West 0.6 mph /  1 km/h 2.3 mph /  3.7 km/h 73 % 0.00 in /  0 mm
21:18 73.0 °F /  22.8 °C 64.2 °F /  17.9 °C 30.06 in /  1017.8 hPa West 0.4 mph /  0.6 km/h 3.5 mph /  5.6 km/h 74 % 0.00 in /  0 mm
21:23 72.8 °F /  22.7 °C 64.0 °F /  17.8 °C 30.06 in /  1017.8 hPa West 0.2 mph /  0.3 km/h 2.3 mph /  3.7 km/h 74 % 0.00 in /  0 mm
21:29 72.6 °F /  22.6 °C 63.8 °F /  17.7 °C 30.06 in /  1017.8 hPa West 0.2 mph /  0.3 km/h 2.3 mph /  3.7 km/h 74 % 0.00 in /  0 mm
21:34 72.5 °F /  22.5 °C 64.1 °F /  17.8 °C 30.06 in /  1017.8 hPa WSW 0.6 mph /  1 km/h 1.2 mph /  1.9 km/h 75 % 0.00 in /  0 mm
21:39 72.4 °F /  22.4 °C 64.4 °F /  18 °C 30.06 in /  1017.8 hPa Calm     76 % 0.00 in /  0 mm
21:44 72.3 °F /  22.4 °C 64.3 °F /  17.9 °C 30.07 in /  1018.2 hPa Calm     76 % 0.00 in /  0 mm
21:49 72.2 °F /  22.3 °C 64.2 °F /  17.9 °C 30.07 in /  1018.2 hPa Calm     76 % 0.00 in /  0 mm
21:54 72.2 °F /  22.3 °C 64.2 °F /  17.9 °C 30.07 in /  1018.2 hPa Calm     76 % 0.00 in /  0 mm
21:59 72.1 °F /  22.3 °C 64.5 °F /  18.1 °C 30.08 in /  1018.5 hPa Calm     77 % 0.00 in /  0 mm
22:04 72.0 °F /  22.2 °C 64.4 °F /  18 °C 30.08 in /  1018.5 hPa Calm     77 % 0.00 in /  0 mm
22:09 71.8 °F /  22.1 °C 64.2 °F /  17.9 °C 30.08 in /  1018.5 hPa Calm     77 % 0.00 in /  0 mm
22:14 71.6 °F /  22 °C 64.0 °F /  17.8 °C 30.08 in /  1018.5 hPa Calm     77 % 0.00 in /  0 mm
22:19 71.5 °F /  21.9 °C 63.9 °F /  17.7 °C 30.08 in /  1018.5 hPa WSW 0.3 mph /  0.5 km/h 1.2 mph /  1.9 km/h 77 % 0.00 in /  0 mm
22:24 71.3 °F /  21.8 °C 63.7 °F /  17.6 °C 30.08 in /  1018.5 hPa WSW 0.1 mph /  0.2 km/h 3.5 mph /  5.6 km/h 77 % 0.00 in /  0 mm
22:29 71.2 °F /  21.8 °C 63.6 °F /  17.6 °C 30.08 in /  1018.5 hPa Calm   1.2 mph /  1.9 km/h 77 % 0.00 in /  0 mm
22:34 71.1 °F /  21.7 °C 63.5 °F /  17.5 °C 30.07 in /  1018.2 hPa Calm     77 % 0.00 in /  0 mm
22:39 71.1 °F /  21.7 °C 63.9 °F /  17.7 °C 30.08 in /  1018.5 hPa Calm     78 % 0.00 in /  0 mm
22:44 71.0 °F /  21.7 °C 63.8 °F /  17.7 °C 30.08 in /  1018.5 hPa Calm     78 % 0.00 in /  0 mm
22:49 71.0 °F /  21.7 °C 63.8 °F /  17.7 °C 30.08 in /  1018.5 hPa Calm     78 % 0.00 in /  0 mm
22:54 70.8 °F /  21.6 °C 63.6 °F /  17.6 °C 30.08 in /  1018.5 hPa Calm     78 % 0.00 in /  0 mm
22:59 70.7 °F /  21.5 °C 63.5 °F /  17.5 °C 30.08 in /  1018.5 hPa Calm   1.2 mph /  1.9 km/h 78 % 0.00 in /  0 mm
23:04 70.6 °F /  21.4 °C 63.4 °F /  17.4 °C 30.08 in /  1018.5 hPa Calm     78 % 0.00 in /  0 mm
23:09 70.4 °F /  21.3 °C 63.6 °F /  17.6 °C 30.09 in /  1018.8 hPa Calm     79 % 0.00 in /  0 mm
23:14 70.3 °F /  21.3 °C 63.5 °F /  17.5 °C 30.09 in /  1018.8 hPa WSW 0.2 mph /  0.3 km/h 1.2 mph /  1.9 km/h 79 % 0.00 in /  0 mm
23:19 70.1 °F /  21.2 °C 63.3 °F /  17.4 °C 30.09 in /  1018.8 hPa WSW 0.1 mph /  0.2 km/h 1.2 mph /  1.9 km/h 79 % 0.00 in /  0 mm
23:24 69.9 °F /  21.1 °C 63.1 °F /  17.3 °C 30.09 in /  1018.8 hPa WSW 0.2 mph /  0.3 km/h 1.2 mph /  1.9 km/h 79 % 0.00 in /  0 mm
23:29 69.8 °F /  21 °C 63.0 °F /  17.2 °C 30.09 in /  1018.8 hPa Calm   1.0 mph /  1.6 km/h 79 % 0.00 in /  0 mm
23:35 69.7 °F /  20.9 °C 62.9 °F /  17.2 °C 30.09 in /  1018.8 hPa Calm     79 % 0.00 in /  0 mm
23:40 69.7 °F /  20.9 °C 63.3 °F /  17.4 °C 30.09 in /  1018.8 hPa Calm     80 % 0.00 in /  0 mm
23:45 69.6 °F /  20.9 °C 63.2 °F /  17.3 °C 30.10 in /  1019.2 hPa WSW 0.1 mph /  0.2 km/h 1.2 mph /  1.9 km/h 80 % 0.00 in /  0 mm
23:50 69.5 °F /  20.8 °C 63.4 °F /  17.4 °C 30.10 in /  1019.2 hPa Calm     81 % 0.00 in /  0 mm
23:55 69.4 °F /  20.8 °C 63.3 °F /  17.4 °C 30.10 in /  1019.2 hPa WSW 0.6 mph /  1 km/h 3.5 mph /  5.6 km/h 81 % 0.00 in /  0 mm
Crab Meadow Weather
Compliments of Weather Underground - 3 mb

Script developed by  Jim McMurry - jmcmurry@mwt.net Adapted for the template by  Wim van der Kuil - Leuven-Template.eu

Weather Terms: Funnel Cloud - A rotating column of air, extending from a towering cumulus or cumulonimbus cloud, that is not in contact with the ground.